North Woods Beach, Wisconsin
Current Conditions -  °F | °C
As of 4:19 AM on Saturday 20 Dec 2014 (Local Time) from KHYR Reporting Station
Haze Haze  
Wind Chill: 18°   Ceiling: 1300
Heat Index: 26°   Visibility: 6mi
Dew Point: 21°   Wind: 7mph
Humidity: 81%   Direction: 170°S
Pressure: 30.16"   Gusts: NA
Location:  46.0387°N, 91.2627°W
Report Text: KHYR 201019Z AUTO 17006KT 6SM HZ BKN013 OVC023 M03/M06 A3016 RMK AO2 T10331061
Loading
Personal Weather Stations






























Interactive Weather Map New forecast layout! Learn more

10-Day Weather Forecast

Advertisements
Track Severe Weather on mobile